Lee Center, Illinois
Current Conditions -  °F | °C
As of 10:35 AM on Saturday 22 Nov 2014 (Local Time) from KRPJ Reporting Station
Haze Haze  
Wind Chill: 33°   Ceiling: 400
Heat Index: 40°   Visibility: 1mi
Dew Point: 40°   Wind: 12mph
Humidity: 98%   Direction: 190°S
Pressure: 29.94"   Gusts: NA
Location:  41.75°N, 89.28°W
Report Text: KRPJ 221635Z AUTO 19010KT 1SM BR OVC004 05/04 A2994 RMK AO2 T00450042
Loading
Personal Weather Stations






























Interactive Weather Map New forecast layout! Learn more

10-Day Weather Forecast

Advertisements
Track Severe Weather on mobile